sensor_id;sensor_type;location;lat;lon;timestamp;P1;durP1;ratioP1;P2;durP2;ratioP2
12910;SDS011;6523;49.758;6.120;2024-01-11T00:01:25;23.07;;;12.00;;
12910;SDS011;6523;49.758;6.120;2024-01-11T00:03:50;21.73;;;11.10;;
12910;SDS011;6523;49.758;6.120;2024-01-11T00:06:16;18.30;;;10.47;;
12910;SDS011;6523;49.758;6.120;2024-01-11T00:08:41;18.93;;;10.00;;
12910;SDS011;6523;49.758;6.120;2024-01-11T00:11:07;23.57;;;10.33;;
12910;SDS011;6523;49.758;6.120;2024-01-11T00:13:32;25.40;;;12.37;;
12910;SDS011;6523;49.758;6.120;2024-01-11T00:15:58;17.90;;;10.73;;
12910;SDS011;6523;49.758;6.120;2024-01-11T00:18:23;21.33;;;12.70;;
12910;SDS011;6523;49.758;6.120;2024-01-11T00:20:49;22.23;;;12.63;;
12910;SDS011;6523;49.758;6.120;2024-01-11T00:23:14;24.03;;;13.00;;
12910;SDS011;6523;49.758;6.120;2024-01-11T00:25:40;22.07;;;11.87;;
12910;SDS011;6523;49.758;6.120;2024-01-11T00:28:06;19.00;;;10.50;;
12910;SDS011;6523;49.758;6.120;2024-01-11T00:30:31;17.30;;;10.43;;
12910;SDS011;6523;49.758;6.120;2024-01-11T00:32:57;19.63;;;10.43;;
12910;SDS011;6523;49.758;6.120;2024-01-11T00:35:22;20.10;;;10.80;;
12910;SDS011;6523;49.758;6.120;2024-01-11T00:37:48;20.67;;;11.93;;
12910;SDS011;6523;49.758;6.120;2024-01-11T00:40:14;21.63;;;10.57;;
12910;SDS011;6523;49.758;6.120;2024-01-11T00:42:39;19.20;;;11.00;;
12910;SDS011;6523;49.758;6.120;2024-01-11T00:45:05;19.70;;;11.20;;
12910;SDS011;6523;49.758;6.120;2024-01-11T00:47:31;17.43;;;10.63;;
12910;SDS011;6523;49.758;6.120;2024-01-11T00:49:56;20.17;;;10.13;;
12910;SDS011;6523;49.758;6.120;2024-01-11T00:52:22;17.67;;;10.50;;
12910;SDS011;6523;49.758;6.120;2024-01-11T00:54:47;19.17;;;10.87;;
12910;SDS011;6523;49.758;6.120;2024-01-11T00:57:13;22.00;;;11.40;;
12910;SDS011;6523;49.758;6.120;2024-01-11T00:59:39;18.17;;;11.37;;
12910;SDS011;6523;49.758;6.120;2024-01-11T01:02:05;25.10;;;12.00;;
12910;SDS011;6523;49.758;6.120;2024-01-11T01:04:31;18.83;;;11.67;;
12910;SDS011;6523;49.758;6.120;2024-01-11T01:06:56;23.03;;;12.33;;
12910;SDS011;6523;49.758;6.120;2024-01-11T01:09:22;20.93;;;11.37;;
12910;SDS011;6523;49.758;6.120;2024-01-11T01:11:48;20.10;;;11.80;;
12910;SDS011;6523;49.758;6.120;2024-01-11T01:14:13;22.77;;;12.80;;
12910;SDS011;6523;49.758;6.120;2024-01-11T01:16:39;20.60;;;11.00;;
12910;SDS011;6523;49.758;6.120;2024-01-11T01:19:05;19.07;;;11.23;;
12910;SDS011;6523;49.758;6.120;2024-01-11T01:21:30;18.93;;;10.73;;
12910;SDS011;6523;49.758;6.120;2024-01-11T01:23:56;20.00;;;10.13;;
12910;SDS011;6523;49.758;6.120;2024-01-11T01:26:21;21.37;;;11.23;;
12910;SDS011;6523;49.758;6.120;2024-01-11T01:28:47;21.10;;;12.83;;
12910;SDS011;6523;49.758;6.120;2024-01-11T01:31:12;23.00;;;12.73;;
12910;SDS011;6523;49.758;6.120;2024-01-11T01:33:39;17.10;;;10.50;;
12910;SDS011;6523;49.758;6.120;2024-01-11T01:36:07;22.27;;;11.83;;
12910;SDS011;6523;49.758;6.120;2024-01-11T01:38:35;23.03;;;11.80;;
12910;SDS011;6523;49.758;6.120;2024-01-11T01:41:00;21.00;;;11.87;;
12910;SDS011;6523;49.758;6.120;2024-01-11T01:43:26;21.27;;;11.90;;
12910;SDS011;6523;49.758;6.120;2024-01-11T01:45:51;22.80;;;12.07;;
12910;SDS011;6523;49.758;6.120;2024-01-11T01:48:17;25.83;;;11.70;;
12910;SDS011;6523;49.758;6.120;2024-01-11T01:50:44;20.53;;;11.33;;
12910;SDS011;6523;49.758;6.120;2024-01-11T01:53:15;23.20;;;12.17;;
12910;SDS011;6523;49.758;6.120;2024-01-11T01:55:44;20.47;;;11.93;;
12910;SDS011;6523;49.758;6.120;2024-01-11T01:58:10;18.43;;;10.53;;
12910;SDS011;6523;49.758;6.120;2024-01-11T02:00:37;19.47;;;11.30;;
12910;SDS011;6523;49.758;6.120;2024-01-11T02:03:03;19.60;;;11.60;;
12910;SDS011;6523;49.758;6.120;2024-01-11T02:05:29;20.23;;;11.53;;
12910;SDS011;6523;49.758;6.120;2024-01-11T02:07:55;22.50;;;12.33;;
12910;SDS011;6523;49.758;6.120;2024-01-11T02:10:24;20.57;;;12.13;;
12910;SDS011;6523;49.758;6.120;2024-01-11T02:12:50;19.67;;;12.27;;
12910;SDS011;6523;49.758;6.120;2024-01-11T02:15:15;24.40;;;13.10;;
12910;SDS011;6523;49.758;6.120;2024-01-11T02:17:41;21.43;;;12.47;;
12910;SDS011;6523;49.758;6.120;2024-01-11T02:20:07;21.47;;;11.43;;
12910;SDS011;6523;49.758;6.120;2024-01-11T02:22:38;24.83;;;12.67;;
12910;SDS011;6523;49.758;6.120;2024-01-11T02:25:05;24.70;;;12.40;;
12910;SDS011;6523;49.758;6.120;2024-01-11T02:27:31;23.77;;;11.60;;
12910;SDS011;6523;49.758;6.120;2024-01-11T02:30:09;24.33;;;12.10;;
12910;SDS011;6523;49.758;6.120;2024-01-11T02:32:35;18.30;;;11.17;;
12910;SDS011;6523;49.758;6.120;2024-01-11T02:35:00;18.60;;;11.77;;
12910;SDS011;6523;49.758;6.120;2024-01-11T02:37:26;21.20;;;11.53;;
12910;SDS011;6523;49.758;6.120;2024-01-11T02:39:52;22.67;;;12.23;;
12910;SDS011;6523;49.758;6.120;2024-01-11T02:42:18;23.37;;;12.50;;
12910;SDS011;6523;49.758;6.120;2024-01-11T02:44:43;21.73;;;12.33;;
12910;SDS011;6523;49.758;6.120;2024-01-11T02:47:09;24.07;;;13.07;;
12910;SDS011;6523;49.758;6.120;2024-01-11T02:49:35;28.43;;;12.57;;
12910;SDS011;6523;49.758;6.120;2024-01-11T02:52:00;27.93;;;14.43;;
12910;SDS011;6523;49.758;6.120;2024-01-11T02:54:26;26.40;;;12.23;;
12910;SDS011;6523;49.758;6.120;2024-01-11T02:56:51;24.37;;;12.23;;
12910;SDS011;6523;49.758;6.120;2024-01-11T02:59:17;26.30;;;15.00;;
12910;SDS011;6523;49.758;6.120;2024-01-11T03:01:42;27.43;;;13.37;;
12910;SDS011;6523;49.758;6.120;2024-01-11T03:04:08;25.70;;;13.53;;
12910;SDS011;6523;49.758;6.120;2024-01-11T03:06:34;27.00;;;14.87;;
12910;SDS011;6523;49.758;6.120;2024-01-11T03:08:59;26.93;;;14.93;;
12910;SDS011;6523;49.758;6.120;2024-01-11T03:11:25;30.43;;;15.30;;
12910;SDS011;6523;49.758;6.120;2024-01-11T03:13:51;25.90;;;14.23;;
12910;SDS011;6523;49.758;6.120;2024-01-11T03:16:16;27.70;;;14.47;;
12910;SDS011;6523;49.758;6.120;2024-01-11T03:18:42;26.13;;;13.27;;
12910;SDS011;6523;49.758;6.120;2024-01-11T03:21:08;28.50;;;15.10;;
12910;SDS011;6523;49.758;6.120;2024-01-11T03:23:33;24.20;;;12.37;;
12910;SDS011;6523;49.758;6.120;2024-01-11T03:25:59;23.23;;;12.43;;
12910;SDS011;6523;49.758;6.120;2024-01-11T03:28:25;24.03;;;12.23;;
12910;SDS011;6523;49.758;6.120;2024-01-11T03:30:51;19.27;;;12.93;;
12910;SDS011;6523;49.758;6.120;2024-01-11T03:33:17;23.63;;;12.67;;
12910;SDS011;6523;49.758;6.120;2024-01-11T03:35:42;22.70;;;13.30;;
12910;SDS011;6523;49.758;6.120;2024-01-11T03:38:09;22.87;;;11.53;;
12910;SDS011;6523;49.758;6.120;2024-01-11T03:40:34;19.80;;;10.93;;
12910;SDS011;6523;49.758;6.120;2024-01-11T03:43:00;21.03;;;11.27;;
12910;SDS011;6523;49.758;6.120;2024-01-11T03:45:25;23.27;;;12.07;;
12910;SDS011;6523;49.758;6.120;2024-01-11T03:47:51;25.17;;;11.50;;
12910;SDS011;6523;49.758;6.120;2024-01-11T03:50:16;20.80;;;11.57;;
12910;SDS011;6523;49.758;6.120;2024-01-11T03:52:42;22.97;;;11.77;;
12910;SDS011;6523;49.758;6.120;2024-01-11T03:55:07;23.43;;;11.83;;
12910;SDS011;6523;49.758;6.120;2024-01-11T03:57:33;20.33;;;11.33;;
12910;SDS011;6523;49.758;6.120;2024-01-11T04:00:00;19.80;;;10.87;;
12910;SDS011;6523;49.758;6.120;2024-01-11T04:02:25;23.53;;;11.97;;
12910;SDS011;6523;49.758;6.120;2024-01-11T04:04:51;22.60;;;10.87;;
12910;SDS011;6523;49.758;6.120;2024-01-11T04:07:16;18.90;;;11.27;;
12910;SDS011;6523;49.758;6.120;2024-01-11T04:09:42;22.53;;;11.50;;
12910;SDS011;6523;49.758;6.120;2024-01-11T04:12:08;23.67;;;12.70;;
12910;SDS011;6523;49.758;6.120;2024-01-11T04:14:33;20.63;;;10.83;;
12910;SDS011;6523;49.758;6.120;2024-01-11T04:17:04;20.50;;;11.27;;
12910;SDS011;6523;49.758;6.120;2024-01-11T04:19:29;17.17;;;10.00;;
12910;SDS011;6523;49.758;6.120;2024-01-11T04:21:55;20.70;;;11.43;;
12910;SDS011;6523;49.758;6.120;2024-01-11T04:24:20;20.83;;;11.23;;
12910;SDS011;6523;49.758;6.120;2024-01-11T04:26:46;17.00;;;10.77;;
12910;SDS011;6523;49.758;6.120;2024-01-11T04:29:12;19.03;;;11.90;;
12910;SDS011;6523;49.758;6.120;2024-01-11T04:31:37;22.97;;;11.27;;
12910;SDS011;6523;49.758;6.120;2024-01-11T04:34:03;23.90;;;12.73;;
12910;SDS011;6523;49.758;6.120;2024-01-11T04:36:28;17.60;;;10.57;;
12910;SDS011;6523;49.758;6.120;2024-01-11T04:38:54;19.40;;;10.90;;
12910;SDS011;6523;49.758;6.120;2024-01-11T04:41:19;20.87;;;11.53;;
12910;SDS011;6523;49.758;6.120;2024-01-11T04:43:45;23.63;;;11.10;;
12910;SDS011;6523;49.758;6.120;2024-01-11T04:46:20;17.73;;;10.00;;
12910;SDS011;6523;49.758;6.120;2024-01-11T04:48:47;18.53;;;10.63;;
12910;SDS011;6523;49.758;6.120;2024-01-11T04:51:16;21.57;;;10.20;;
12910;SDS011;6523;49.758;6.120;2024-01-11T04:53:43;21.73;;;10.70;;
12910;SDS011;6523;49.758;6.120;2024-01-11T04:56:10;24.03;;;12.10;;
12910;SDS011;6523;49.758;6.120;2024-01-11T04:58:38;19.43;;;10.97;;
12910;SDS011;6523;49.758;6.120;2024-01-11T05:01:05;19.67;;;10.90;;
12910;SDS011;6523;49.758;6.120;2024-01-11T05:03:31;18.60;;;10.53;;
12910;SDS011;6523;49.758;6.120;2024-01-11T05:05:58;19.83;;;10.57;;
12910;SDS011;6523;49.758;6.120;2024-01-11T05:08:25;22.77;;;10.87;;
12910;SDS011;6523;49.758;6.120;2024-01-11T05:10:51;22.77;;;10.60;;
12910;SDS011;6523;49.758;6.120;2024-01-11T05:13:17;21.37;;;12.17;;
12910;SDS011;6523;49.758;6.120;2024-01-11T05:15:43;17.93;;;11.30;;
12910;SDS011;6523;49.758;6.120;2024-01-11T05:18:09;24.67;;;12.47;;
12910;SDS011;6523;49.758;6.120;2024-01-11T05:20:35;21.20;;;11.60;;
12910;SDS011;6523;49.758;6.120;2024-01-11T05:23:01;19.57;;;11.73;;
12910;SDS011;6523;49.758;6.120;2024-01-11T05:25:27;21.73;;;10.77;;
12910;SDS011;6523;49.758;6.120;2024-01-11T05:27:53;22.90;;;11.57;;
12910;SDS011;6523;49.758;6.120;2024-01-11T05:30:18;20.33;;;10.87;;
12910;SDS011;6523;49.758;6.120;2024-01-11T05:32:44;19.07;;;11.07;;
12910;SDS011;6523;49.758;6.120;2024-01-11T05:35:09;21.07;;;11.63;;
12910;SDS011;6523;49.758;6.120;2024-01-11T05:37:35;19.80;;;11.00;;
12910;SDS011;6523;49.758;6.120;2024-01-11T05:40:01;21.23;;;11.63;;
12910;SDS011;6523;49.758;6.120;2024-01-11T05:42:28;17.80;;;10.57;;
12910;SDS011;6523;49.758;6.120;2024-01-11T05:44:53;22.67;;;11.30;;
12910;SDS011;6523;49.758;6.120;2024-01-11T05:47:19;19.47;;;10.80;;
12910;SDS011;6523;49.758;6.120;2024-01-11T05:49:44;20.87;;;10.70;;
12910;SDS011;6523;49.758;6.120;2024-01-11T05:52:10;20.77;;;11.33;;
12910;SDS011;6523;49.758;6.120;2024-01-11T05:54:36;18.33;;;10.37;;
12910;SDS011;6523;49.758;6.120;2024-01-11T05:57:01;20.10;;;11.13;;
12910;SDS011;6523;49.758;6.120;2024-01-11T05:59:27;18.47;;;10.50;;
12910;SDS011;6523;49.758;6.120;2024-01-11T06:01:53;18.17;;;10.30;;
12910;SDS011;6523;49.758;6.120;2024-01-11T06:04:18;20.73;;;10.67;;
12910;SDS011;6523;49.758;6.120;2024-01-11T06:06:44;18.47;;;10.33;;
12910;SDS011;6523;49.758;6.120;2024-01-11T06:09:09;17.03;;;10.00;;
12910;SDS011;6523;49.758;6.120;2024-01-11T06:11:35;19.27;;;9.93;;
12910;SDS011;6523;49.758;6.120;2024-01-11T06:14:01;21.93;;;11.30;;
12910;SDS011;6523;49.758;6.120;2024-01-11T06:16:27;21.33;;;11.13;;
12910;SDS011;6523;49.758;6.120;2024-01-11T06:18:53;24.13;;;11.13;;
12910;SDS011;6523;49.758;6.120;2024-01-11T06:21:19;19.57;;;11.50;;
12910;SDS011;6523;49.758;6.120;2024-01-11T06:23:44;22.07;;;11.53;;
12910;SDS011;6523;49.758;6.120;2024-01-11T06:26:10;24.47;;;12.07;;
12910;SDS011;6523;49.758;6.120;2024-01-11T06:28:35;18.40;;;10.70;;
12910;SDS011;6523;49.758;6.120;2024-01-11T06:31:01;20.37;;;10.80;;
12910;SDS011;6523;49.758;6.120;2024-01-11T06:33:26;20.13;;;10.93;;
12910;SDS011;6523;49.758;6.120;2024-01-11T06:35:53;21.17;;;11.60;;
12910;SDS011;6523;49.758;6.120;2024-01-11T06:38:19;17.97;;;11.17;;
12910;SDS011;6523;49.758;6.120;2024-01-11T06:40:44;23.70;;;11.03;;
12910;SDS011;6523;49.758;6.120;2024-01-11T06:43:10;18.07;;;10.23;;
12910;SDS011;6523;49.758;6.120;2024-01-11T06:45:36;22.00;;;10.87;;
12910;SDS011;6523;49.758;6.120;2024-01-11T06:48:02;21.53;;;10.13;;
12910;SDS011;6523;49.758;6.120;2024-01-11T06:50:27;18.73;;;10.20;;
12910;SDS011;6523;49.758;6.120;2024-01-11T06:52:53;23.83;;;11.17;;
12910;SDS011;6523;49.758;6.120;2024-01-11T06:55:19;22.60;;;11.57;;
12910;SDS011;6523;49.758;6.120;2024-01-11T06:57:47;22.33;;;10.97;;
12910;SDS011;6523;49.758;6.120;2024-01-11T07:00:13;22.90;;;10.97;;
12910;SDS011;6523;49.758;6.120;2024-01-11T07:02:39;17.03;;;10.30;;
12910;SDS011;6523;49.758;6.120;2024-01-11T07:05:07;21.57;;;11.40;;
12910;SDS011;6523;49.758;6.120;2024-01-11T07:07:33;23.13;;;11.93;;
12910;SDS011;6523;49.758;6.120;2024-01-11T07:09:59;19.33;;;12.10;;
12910;SDS011;6523;49.758;6.120;2024-01-11T07:12:24;21.90;;;11.13;;
12910;SDS011;6523;49.758;6.120;2024-01-11T07:14:53;21.33;;;11.53;;
12910;SDS011;6523;49.758;6.120;2024-01-11T07:17:18;21.77;;;12.53;;
12910;SDS011;6523;49.758;6.120;2024-01-11T07:19:44;23.07;;;10.93;;
12910;SDS011;6523;49.758;6.120;2024-01-11T07:22:09;20.73;;;10.83;;
12910;SDS011;6523;49.758;6.120;2024-01-11T07:24:35;20.10;;;11.17;;
12910;SDS011;6523;49.758;6.120;2024-01-11T07:27:04;21.27;;;10.80;;
12910;SDS011;6523;49.758;6.120;2024-01-11T07:29:31;21.37;;;11.07;;
12910;SDS011;6523;49.758;6.120;2024-01-11T07:31:57;19.00;;;11.33;;
12910;SDS011;6523;49.758;6.120;2024-01-11T07:34:22;19.97;;;11.10;;
12910;SDS011;6523;49.758;6.120;2024-01-11T07:36:49;18.30;;;11.00;;
12910;SDS011;6523;49.758;6.120;2024-01-11T07:39:15;21.27;;;11.83;;
12910;SDS011;6523;49.758;6.120;2024-01-11T07:41:41;23.97;;;12.43;;
12910;SDS011;6523;49.758;6.120;2024-01-11T07:44:07;20.03;;;11.90;;
12910;SDS011;6523;49.758;6.120;2024-01-11T07:46:32;18.97;;;10.73;;
12910;SDS011;6523;49.758;6.120;2024-01-11T07:48:58;18.67;;;10.83;;
12910;SDS011;6523;49.758;6.120;2024-01-11T07:51:24;22.53;;;11.20;;
12910;SDS011;6523;49.758;6.120;2024-01-11T07:53:50;19.73;;;10.80;;
12910;SDS011;6523;49.758;6.120;2024-01-11T07:56:15;25.33;;;12.23;;
12910;SDS011;6523;49.758;6.120;2024-01-11T07:58:42;24.60;;;12.60;;
12910;SDS011;6523;49.758;6.120;2024-01-11T08:01:07;22.43;;;11.30;;
12910;SDS011;6523;49.758;6.120;2024-01-11T08:03:34;19.50;;;10.67;;
12910;SDS011;6523;49.758;6.120;2024-01-11T08:06:00;22.77;;;11.57;;
12910;SDS011;6523;49.758;6.120;2024-01-11T08:08:26;26.10;;;11.83;;
12910;SDS011;6523;49.758;6.120;2024-01-11T08:10:51;23.87;;;11.97;;
12910;SDS011;6523;49.758;6.120;2024-01-11T08:13:17;21.67;;;11.10;;
12910;SDS011;6523;49.758;6.120;2024-01-11T08:15:44;16.03;;;10.13;;
12910;SDS011;6523;49.758;6.120;2024-01-11T08:18:09;21.87;;;13.43;;
12910;SDS011;6523;49.758;6.120;2024-01-11T08:20:35;22.90;;;12.20;;
12910;SDS011;6523;49.758;6.120;2024-01-11T08:23:00;23.47;;;15.47;;
12910;SDS011;6523;49.758;6.120;2024-01-11T08:25:26;22.83;;;14.53;;
12910;SDS011;6523;49.758;6.120;2024-01-11T08:27:51;21.03;;;12.37;;
12910;SDS011;6523;49.758;6.120;2024-01-11T08:30:17;21.93;;;12.67;;
12910;SDS011;6523;49.758;6.120;2024-01-11T08:32:43;21.17;;;12.97;;
12910;SDS011;6523;49.758;6.120;2024-01-11T08:35:09;21.03;;;11.67;;
12910;SDS011;6523;49.758;6.120;2024-01-11T08:37:35;17.87;;;10.67;;
12910;SDS011;6523;49.758;6.120;2024-01-11T08:40:01;22.60;;;10.97;;
12910;SDS011;6523;49.758;6.120;2024-01-11T08:42:29;18.37;;;11.60;;
12910;SDS011;6523;49.758;6.120;2024-01-11T08:44:55;27.47;;;12.90;;
12910;SDS011;6523;49.758;6.120;2024-01-11T08:47:21;24.83;;;12.10;;
12910;SDS011;6523;49.758;6.120;2024-01-11T08:49:47;19.83;;;12.40;;
12910;SDS011;6523;49.758;6.120;2024-01-11T08:52:12;24.60;;;13.43;;
12910;SDS011;6523;49.758;6.120;2024-01-11T08:54:38;22.43;;;11.13;;
12910;SDS011;6523;49.758;6.120;2024-01-11T08:57:03;19.13;;;11.37;;
12910;SDS011;6523;49.758;6.120;2024-01-11T08:59:29;24.77;;;12.43;;
12910;SDS011;6523;49.758;6.120;2024-01-11T09:01:55;24.47;;;12.93;;
12910;SDS011;6523;49.758;6.120;2024-01-11T09:04:20;23.63;;;11.50;;
12910;SDS011;6523;49.758;6.120;2024-01-11T09:06:46;22.27;;;11.60;;
12910;SDS011;6523;49.758;6.120;2024-01-11T09:09:12;21.50;;;11.63;;
12910;SDS011;6523;49.758;6.120;2024-01-11T09:11:38;22.13;;;11.40;;
12910;SDS011;6523;49.758;6.120;2024-01-11T09:14:06;22.77;;;13.23;;
12910;SDS011;6523;49.758;6.120;2024-01-11T09:16:31;20.97;;;12.40;;
12910;SDS011;6523;49.758;6.120;2024-01-11T09:18:58;19.60;;;12.10;;
12910;SDS011;6523;49.758;6.120;2024-01-11T09:21:25;21.47;;;12.17;;
12910;SDS011;6523;49.758;6.120;2024-01-11T09:23:51;20.90;;;11.93;;
12910;SDS011;6523;49.758;6.120;2024-01-11T09:26:17;22.07;;;13.30;;
12910;SDS011;6523;49.758;6.120;2024-01-11T09:28:42;22.40;;;12.70;;
12910;SDS011;6523;49.758;6.120;2024-01-11T09:31:08;21.30;;;12.93;;
12910;SDS011;6523;49.758;6.120;2024-01-11T09:33:33;23.57;;;13.07;;
12910;SDS011;6523;49.758;6.120;2024-01-11T09:35:59;18.97;;;10.00;;
12910;SDS011;6523;49.758;6.120;2024-01-11T09:38:25;20.07;;;12.33;;
12910;SDS011;6523;49.758;6.120;2024-01-11T09:40:52;23.80;;;12.57;;
12910;SDS011;6523;49.758;6.120;2024-01-11T09:43:33;23.13;;;12.10;;
12910;SDS011;6523;49.758;6.120;2024-01-11T09:46:00;21.73;;;13.00;;
12910;SDS011;6523;49.758;6.120;2024-01-11T09:48:32;18.73;;;12.13;;
12910;SDS011;6523;49.758;6.120;2024-01-11T09:51:02;24.63;;;12.83;;
12910;SDS011;6523;49.758;6.120;2024-01-11T09:53:30;22.40;;;12.73;;
12910;SDS011;6523;49.758;6.120;2024-01-11T09:55:58;24.57;;;13.23;;
12910;SDS011;6523;49.758;6.120;2024-01-11T09:58:24;21.63;;;14.20;;
12910;SDS011;6523;49.758;6.120;2024-01-11T10:00:52;26.80;;;13.77;;
12910;SDS011;6523;49.758;6.120;2024-01-11T10:03:20;27.37;;;13.63;;
12910;SDS011;6523;49.758;6.120;2024-01-11T10:05:48;24.50;;;13.67;;
12910;SDS011;6523;49.758;6.120;2024-01-11T10:08:17;25.50;;;13.57;;
12910;SDS011;6523;49.758;6.120;2024-01-11T10:10:44;24.07;;;12.80;;
12910;SDS011;6523;49.758;6.120;2024-01-11T10:13:09;31.63;;;18.83;;
12910;SDS011;6523;49.758;6.120;2024-01-11T10:15:36;29.43;;;17.00;;
12910;SDS011;6523;49.758;6.120;2024-01-11T10:18:01;27.00;;;14.57;;
12910;SDS011;6523;49.758;6.120;2024-01-11T10:20:27;28.57;;;15.50;;
12910;SDS011;6523;49.758;6.120;2024-01-11T10:22:55;23.30;;;15.27;;
12910;SDS011;6523;49.758;6.120;2024-01-11T10:25:22;31.63;;;15.67;;
12910;SDS011;6523;49.758;6.120;2024-01-11T10:27:48;25.63;;;14.10;;
12910;SDS011;6523;49.758;6.120;2024-01-11T10:30:16;23.20;;;12.40;;
12910;SDS011;6523;49.758;6.120;2024-01-11T10:32:43;21.37;;;12.70;;
12910;SDS011;6523;49.758;6.120;2024-01-11T10:35:09;21.10;;;13.00;;
12910;SDS011;6523;49.758;6.120;2024-01-11T10:37:35;19.53;;;12.97;;
12910;SDS011;6523;49.758;6.120;2024-01-11T10:40:04;20.47;;;12.80;;
12910;SDS011;6523;49.758;6.120;2024-01-11T10:42:36;20.90;;;12.80;;
12910;SDS011;6523;49.758;6.120;2024-01-11T10:45:14;21.67;;;12.30;;
12910;SDS011;6523;49.758;6.120;2024-01-11T10:47:45;24.37;;;12.80;;
12910;SDS011;6523;49.758;6.120;2024-01-11T10:50:15;20.40;;;12.10;;
12910;SDS011;6523;49.758;6.120;2024-01-11T10:52:43;22.20;;;12.37;;
12910;SDS011;6523;49.758;6.120;2024-01-11T10:55:31;25.50;;;12.63;;
12910;SDS011;6523;49.758;6.120;2024-01-11T10:57:59;23.07;;;13.37;;
12910;SDS011;6523;49.758;6.120;2024-01-11T11:00:29;19.80;;;11.43;;
12910;SDS011;6523;49.758;6.120;2024-01-11T11:02:56;17.53;;;11.70;;
12910;SDS011;6523;49.758;6.120;2024-01-11T11:05:25;22.00;;;13.10;;
12910;SDS011;6523;49.758;6.120;2024-01-11T11:07:52;19.97;;;12.03;;
12910;SDS011;6523;49.758;6.120;2024-01-11T11:10:19;20.50;;;12.73;;
12910;SDS011;6523;49.758;6.120;2024-01-11T11:12:46;19.53;;;11.90;;
12910;SDS011;6523;49.758;6.120;2024-01-11T11:15:13;19.00;;;12.10;;
12910;SDS011;6523;49.758;6.120;2024-01-11T11:17:43;19.27;;;12.03;;
12910;SDS011;6523;49.758;6.120;2024-01-11T11:20:09;22.33;;;12.10;;
12910;SDS011;6523;49.758;6.120;2024-01-11T11:22:41;20.30;;;11.80;;
12910;SDS011;6523;49.758;6.120;2024-01-11T11:25:10;18.37;;;11.20;;
12910;SDS011;6523;49.758;6.120;2024-01-11T11:27:48;17.33;;;11.23;;
12910;SDS011;6523;49.758;6.120;2024-01-11T11:30:14;18.87;;;11.83;;
12910;SDS011;6523;49.758;6.120;2024-01-11T11:32:43;17.60;;;10.97;;
12910;SDS011;6523;49.758;6.120;2024-01-11T11:35:09;14.13;;;10.17;;
12910;SDS011;6523;49.758;6.120;2024-01-11T11:37:39;18.33;;;10.97;;
12910;SDS011;6523;49.758;6.120;2024-01-11T11:40:05;15.93;;;10.43;;
12910;SDS011;6523;49.758;6.120;2024-01-11T11:42:36;17.27;;;10.20;;
12910;SDS011;6523;49.758;6.120;2024-01-11T11:45:02;17.67;;;11.37;;
12910;SDS011;6523;49.758;6.120;2024-01-11T11:47:35;14.47;;;10.00;;
12910;SDS011;6523;49.758;6.120;2024-01-11T11:50:06;17.37;;;10.40;;
12910;SDS011;6523;49.758;6.120;2024-01-11T11:52:39;16.30;;;9.83;;
12910;SDS011;6523;49.758;6.120;2024-01-11T11:55:07;14.47;;;9.77;;
12910;SDS011;6523;49.758;6.120;2024-01-11T11:57:33;16.67;;;10.70;;
12910;SDS011;6523;49.758;6.120;2024-01-11T12:00:00;14.73;;;9.87;;
12910;SDS011;6523;49.758;6.120;2024-01-11T12:02:36;14.73;;;10.07;;
12910;SDS011;6523;49.758;6.120;2024-01-11T12:05:02;15.83;;;10.37;;
12910;SDS011;6523;49.758;6.120;2024-01-11T12:07:29;15.90;;;10.43;;
12910;SDS011;6523;49.758;6.120;2024-01-11T12:09:54;12.80;;;10.23;;
12910;SDS011;6523;49.758;6.120;2024-01-11T12:12:20;15.37;;;9.77;;
12910;SDS011;6523;49.758;6.120;2024-01-11T12:14:46;14.17;;;10.63;;
12910;SDS011;6523;49.758;6.120;2024-01-11T12:17:13;15.03;;;9.60;;
12910;SDS011;6523;49.758;6.120;2024-01-11T12:19:39;16.30;;;10.40;;
12910;SDS011;6523;49.758;6.120;2024-01-11T12:22:05;13.27;;;9.47;;
12910;SDS011;6523;49.758;6.120;2024-01-11T12:24:31;14.40;;;9.50;;
12910;SDS011;6523;49.758;6.120;2024-01-11T12:26:58;14.07;;;10.00;;
12910;SDS011;6523;49.758;6.120;2024-01-11T12:29:25;15.43;;;9.53;;
12910;SDS011;6523;49.758;6.120;2024-01-11T12:31:51;14.23;;;9.73;;
12910;SDS011;6523;49.758;6.120;2024-01-11T12:34:17;16.63;;;10.07;;
12910;SDS011;6523;49.758;6.120;2024-01-11T12:36:42;12.93;;;9.07;;
12910;SDS011;6523;49.758;6.120;2024-01-11T12:39:08;14.43;;;10.07;;
12910;SDS011;6523;49.758;6.120;2024-01-11T12:41:38;14.70;;;10.53;;
12910;SDS011;6523;49.758;6.120;2024-01-11T12:44:04;12.50;;;8.83;;
12910;SDS011;6523;49.758;6.120;2024-01-11T12:46:30;13.07;;;9.20;;
12910;SDS011;6523;49.758;6.120;2024-01-11T12:48:55;14.27;;;9.33;;
12910;SDS011;6523;49.758;6.120;2024-01-11T12:51:21;12.40;;;8.77;;
12910;SDS011;6523;49.758;6.120;2024-01-11T12:53:47;12.23;;;8.73;;
12910;SDS011;6523;49.758;6.120;2024-01-11T12:56:14;12.47;;;8.50;;
12910;SDS011;6523;49.758;6.120;2024-01-11T12:58:41;12.13;;;8.43;;
12910;SDS011;6523;49.758;6.120;2024-01-11T13:01:07;12.83;;;8.67;;
12910;SDS011;6523;49.758;6.120;2024-01-11T13:03:34;12.10;;;8.53;;
12910;SDS011;6523;49.758;6.120;2024-01-11T13:06:01;12.87;;;8.87;;
12910;SDS011;6523;49.758;6.120;2024-01-11T13:08:27;12.60;;;8.80;;
12910;SDS011;6523;49.758;6.120;2024-01-11T13:10:54;18.20;;;8.80;;
12910;SDS011;6523;49.758;6.120;2024-01-11T13:13:20;12.90;;;8.43;;
12910;SDS011;6523;49.758;6.120;2024-01-11T13:15:45;11.00;;;7.97;;
12910;SDS011;6523;49.758;6.120;2024-01-11T13:18:11;12.90;;;8.13;;
12910;SDS011;6523;49.758;6.120;2024-01-11T13:20:37;14.20;;;8.23;;
12910;SDS011;6523;49.758;6.120;2024-01-11T13:23:13;11.77;;;8.60;;
12910;SDS011;6523;49.758;6.120;2024-01-11T13:25:42;11.47;;;8.30;;
12910;SDS011;6523;49.758;6.120;2024-01-11T13:28:09;12.30;;;8.43;;
12910;SDS011;6523;49.758;6.120;2024-01-11T13:30:36;12.00;;;8.03;;
12910;SDS011;6523;49.758;6.120;2024-01-11T13:33:04;9.83;;;7.33;;
12910;SDS011;6523;49.758;6.120;2024-01-11T13:35:29;10.17;;;7.03;;
12910;SDS011;6523;49.758;6.120;2024-01-11T13:37:55;12.27;;;7.93;;
12910;SDS011;6523;49.758;6.120;2024-01-11T13:40:21;11.10;;;8.00;;
12910;SDS011;6523;49.758;6.120;2024-01-11T13:42:46;9.60;;;7.50;;
12910;SDS011;6523;49.758;6.120;2024-01-11T13:45:12;9.97;;;7.37;;
12910;SDS011;6523;49.758;6.120;2024-01-11T13:47:38;10.57;;;7.37;;
12910;SDS011;6523;49.758;6.120;2024-01-11T13:50:04;10.10;;;7.60;;
12910;SDS011;6523;49.758;6.120;2024-01-11T13:52:30;10.10;;;7.13;;
12910;SDS011;6523;49.758;6.120;2024-01-11T13:54:55;10.63;;;7.17;;
12910;SDS011;6523;49.758;6.120;2024-01-11T13:57:21;9.53;;;7.00;;
12910;SDS011;6523;49.758;6.120;2024-01-11T13:59:47;10.13;;;6.93;;
12910;SDS011;6523;49.758;6.120;2024-01-11T14:02:12;10.63;;;7.00;;
12910;SDS011;6523;49.758;6.120;2024-01-11T14:04:38;8.93;;;6.13;;
12910;SDS011;6523;49.758;6.120;2024-01-11T14:07:04;9.03;;;6.10;;
12910;SDS011;6523;49.758;6.120;2024-01-11T14:09:30;9.40;;;5.87;;
12910;SDS011;6523;49.758;6.120;2024-01-11T14:11:56;9.67;;;5.80;;
12910;SDS011;6523;49.758;6.120;2024-01-11T14:14:21;11.00;;;6.40;;
12910;SDS011;6523;49.758;6.120;2024-01-11T14:16:47;10.47;;;6.93;;
12910;SDS011;6523;49.758;6.120;2024-01-11T14:19:13;10.30;;;6.37;;
12910;SDS011;6523;49.758;6.120;2024-01-11T14:21:39;8.90;;;6.23;;
12910;SDS011;6523;49.758;6.120;2024-01-11T14:24:04;9.73;;;6.73;;
12910;SDS011;6523;49.758;6.120;2024-01-11T14:26:31;8.67;;;6.57;;
12910;SDS011;6523;49.758;6.120;2024-01-11T14:28:57;9.87;;;6.50;;
12910;SDS011;6523;49.758;6.120;2024-01-11T14:31:23;10.60;;;6.70;;
12910;SDS011;6523;49.758;6.120;2024-01-11T14:33:49;10.67;;;6.80;;